Pablo Fernandez

Recruteur en chef - O'Higgins
20 Nov 2027
Samedi
Processus

Personnalité

Adaptabilité (12) Ambition (1) Controverse (12) Loyauté (14) Pression (4) Professionnalisme (5) Sportivité (2) Tempérament (3)

Profil

Style d'entraînement Démocratique
Diplôme Continental A
Détermination 4
Gestion des joueurs 6
Motivation 5
Discipline 9
Satisfaction professionnelle
100%
Fatigue
0%
Rôle Recruteur en chef
Salaire 33.1K p/s
Contrat 14.03.2028

Performance

Comportement Bon
Efficacité de l'entraînement
36%
Développement des joueurs
40%
Prévention des blessures
30%
Mise en place tactique
45%

Événements récents

A évalué un joueur maintenant
A participé à une réunion de recrutement maintenant
A participé à une réunion de recrutement maintenant
A participé à une réunion de recrutement maintenant
A évalué un joueur 7j
A évalué un joueur 7j
A évalué un joueur 7j
A évalué un joueur 7j

Suivi en cours

212
Joueur Club Statut Capacité Confiance Observé Dernière observation Dernier vote
Santos Torrealba Zamora Actif 96 / 102 40% 2 19.11.2027 -
Austine Odongo Shabana Actif 95 / 78 40% 2 19.11.2027 -
Felix Mosquera Deportes Quindio Actif 99 / 94 40% 2 15.11.2027 -
Tiago Borquez Gimnasia y Tiro Actif 94 / 80 40% 1 15.11.2027 -
Gonzalo Gelini Boca Juniors Actif 126 / 133 40% 1 13.11.2027 -
Julián Bragado Morón Actif 93 / 92 40% 2 12.11.2027 -
Joseph Abah Remo Stars Actif 99 / 99 40% 1 12.11.2027 -
Tiago Gordillo San Miguel Actif 84 / 91 40% 3 11.11.2027 -
Mateo Aguiar Defensa y Justicia Actif 117 / 114 40% 5 11.11.2027 -
Tomás Parmo River Plate Actif 127 / 130 40% 2 10.11.2027 -
Thiago D'Archivio Alvarado Actif 83 / 86 40% 3 10.11.2027 -
Felipe Obradovich Gimnasia La Plata Actif 116 / 124 40% 1 08.11.2027 -
Tiziano Cabrera Central Norte Actif 77 / 97 40% 3 07.11.2027 -
Thiago Szkaluba Santiago Wanderers Actif 92 / 92 40% 2 07.11.2027 -
Alex Amaefula Kun Khalifat Actif 71 / 86 40% 3 06.11.2027 -
Joel Medina Independiente Actif 107 / 119 40% 2 06.11.2027 -
Mateo Peralta Danubio Actif 123 / 111 40% 6 04.11.2027 -
Valentino Acuña Newell's Old Boys Actif 102 / 118 40% 2 04.11.2027 -
Facundo Balatti Penarol Actif 97 / 115 40% 4 02.11.2027 -
Mateo Silvetti Inter Miami CF Actif 140 / 114 40% 2 31.10.2027 -
Franco Minerva Platense Actif 113 / 123 40% 1 30.10.2027 -
Wilfred Correa Caracas Actif 84 / 95 40% 2 29.10.2027 -
Mateo Alcoba Albion Actif 86 / 92 40% 1 29.10.2027 -
Chimobi Igwilo Rangers International Actif 104 / 89 40% 2 24.10.2027 -
Oskar Spiten-Nysæter Molde Actif 106 / 122 40% 2 24.10.2027 -
Matías Acevedo Racing Club Actif 103 / 123 40% 1 23.10.2027 -
Tiziano Noriega Tristán Suárez Actif 102 / 102 40% 1 23.10.2027 -
Luka Andrade Montevideo City Torque Actif 110 / 110 40% 3 21.10.2027 -
Emmanuel Ndubueze Shooting Stars Actif 96 / 103 40% 2 21.10.2027 -
Dylan Salvo Defensores Unidos Actif 110 / 110 40% 2 20.10.2027 -
Nicolás Azambuja Danubio Actif 123 / 133 40% 3 20.10.2027 -
Esteban de Lima Tacuarembo Actif 84 / 94 40% 3 18.10.2027 -
Bryan Caicedo Leones Actif 98 / 99 40% 3 18.10.2027 -
Ignacio Alastra Talleres Actif 94 / 111 40% 2 16.10.2027 -
Sebastián Ramírez America de Cali Actif 99 / 120 40% 1 15.10.2027 -
Abubakar Garba Nasarawa United Actif 80 / 102 40% 2 12.10.2027 -
Sunday Aniebet Enyimba Actif 95 / 102 40% 3 12.10.2027 -
Geanfranco Rodríguez Defensor Sporting Actif 92 / 102 40% 1 11.10.2027 -
Lucas Duré Montevideo City Torque Actif 104 / 98 40% 4 09.10.2027 -
Jhon Renteria Sarmiento Actif 108 / 115 40% 2 08.10.2027 -
Dilan Godoy Vélez Actif 114 / 122 40% 3 07.10.2027 -
Emiliano Zambrano Gimnasia y Esgrima Actif 98 / 101 40% 1 06.10.2027 -
Agustín Medina Lanús Actif 108 / 121 40% 2 05.10.2027 -
Pablo Suárez Rentistas Actif 100 / 108 40% 1 04.10.2027 -
Mateo Pérez Curci Independiente Actif 108 / 122 40% 1 30.09.2027 -
Gideon Manaseh Ikorodu City Actif 86 / 87 40% 1 25.09.2027 -
Victor Muriel Valledupar Actif 94 / 92 40% 1 23.09.2027 -
Halam Loboa Independiente Medellin Actif 122 / 134 40% 1 22.09.2027 -
Appolinaire Bougma Binga Actif 86 / 99 40% 1 21.09.2027 -
Sergio Castillo Cortulua Actif 109 / 116 40% 1 19.09.2027 -
Jhon Aponza Boca Juniors Actif 109 / 121 40% 1 16.09.2027 -
Facundo Gulli San Lorenzo Actif 110 / 129 40% 1 07.09.2027 -
Mohamed-Ali Cho Hull City Actif 150 / 129 40% 1 13.07.2027 -
Harvey Blair Portsmouth Actif 120 / 122 40% 1 13.07.2027 -
Franco Iturriaga Colo-Colo Actif 83 / 100 55% 1 12.07.2027 -
Aidomo Emakhu Oxford United Actif 107 / 118 40% 2 08.06.2027 -
Callum O'Hare Sheffield United Actif 148 / 127 40% 1 08.06.2027 -
Benjamín Mellado Huachipato Actif 92 / 84 51% 1 06.06.2027 -
Senny Mayulu Paris Saint-Germain Actif 151 / 143 40% 1 01.06.2027 -
Arda Güler Real Madrid Actif 151 / 148 40% 1 11.05.2027 Plus d'infos
Daniel Kyerewaa Reading Actif 127 / 110 40% 3 10.05.2027 -
Finn Azaz Southampton Actif 137 / 126 40% 3 10.05.2027 -
Relebohile Mofokeng Orlando Pirates Actif 131 / 132 40% 4 08.05.2027 -
Max Johnston Derby County Actif 139 / 123 40% 1 08.05.2027 -
Ramón Terrats Getafe Actif 143 / 129 40% 2 07.05.2027 -
Jeon Jin-Woo Sheffield Wednesday Actif 120 / 128 40% 1 07.05.2027 -
Rumarn Burrell Queens Park Rangers Actif 121 / 125 40% 2 06.05.2027 -
Enzo Le Fée Sunderland Actif 148 / 130 40% 1 06.05.2027 -
Welington Southampton Actif 141 / 132 40% 2 05.05.2027 -
Isaiah Jones Luton Town Actif 143 / 132 40% 3 04.05.2027 -
Ali Ahmed Norwich City Actif 130 / 136 40% 1 04.05.2027 -
Alex Verón Villarreal Actif 94 / 128 40% 1 03.05.2027 -
Samuel Lucero Defensa y Justicia Actif 110 / 114 40% 1 03.05.2027 -
Loum Tchaouna Coventry City Actif 155 / 149 40% 1 01.05.2027 -
Isaac Price West Bromwich Albion Actif 136 / 133 40% 1 01.05.2027 -
Araphat Mohammed Medeama Actif 115 / 119 40% 1 01.05.2027 -
Fraser Murray Wigan Athletic Actif 136 / 103 40% 4 29.04.2027 -
Cian Ashford Cardiff City Actif 125 / 116 40% 3 28.04.2027 -
Ronald Swansea City Actif 135 / 133 40% 3 28.04.2027 -
Myles Peart-Harris Oxford United Actif 103 / 125 40% 1 27.04.2027 -
Jack Rudoni Coventry City Actif 149 / 129 40% 1 27.04.2027 -
Lamine Cissé Peterborough United Actif 129 / 126 40% 2 26.04.2027 -
Tshepang Moremi Orlando Pirates Actif 124 / 124 40% 3 26.04.2027 -
Ethan Galbraith Swansea City Actif 119 / 131 40% 4 25.04.2027 -
Koki Saito Queens Park Rangers Actif 122 / 130 40% 1 22.04.2027 -
Gorka Gorosabel Real Sociedad Actif 120 / 126 40% 2 21.04.2027 -
Jason Knight Bristol City Actif 134 / 141 40% 1 21.04.2027 -
Milan van Ewijk Coventry City Actif 147 / 143 40% 1 17.04.2027 -
Helinho Toluca Actif 135 / 140 40% 3 16.04.2027 -
Oscar Schwartau Norwich City Actif 138 / 142 40% 2 16.04.2027 -
Harry Clarke Preston Actif 142 / 141 40% 1 16.04.2027 -
Luke Baartman Bidvest Wits Actif 100 / 103 40% 1 15.04.2027 -
Sam Curtis Swindon Town Actif 108 / 112 40% 1 15.04.2027 -
Dávid Strelec Middlesbrough Actif 132 / 132 40% 1 14.04.2027 -
Bradley Zwane SuperSport United Actif 112 / 105 40% 2 13.04.2027 -
Martim Cunha Porto Actif 101 / 100 40% 1 11.04.2027 -
Charles De Ketelaere Atalanta Actif 140 / 144 40% 1 09.04.2027 -
Caleb Yirenkyi Coventry City Actif 146 / 132 40% 2 08.04.2027 -
Brian Figueroa Morelia Actif 95 / 118 40% 5 05.04.2027 -
Mfundo Vilakazi Kaizer Chiefs Actif 132 / 107 40% 2 05.04.2027 -
Ollie Tanner Cardiff City Actif 109 / 105 40% 1 28.03.2027 -
Romano Schmid Frosinone Actif 135 / 146 40% 1 26.03.2027 -
Bazoumana Touré Newcastle United Actif 126 / 140 40% 2 25.03.2027 -
Tyrese Campbell Sheffield United Actif 127 / 113 40% 1 23.03.2027 -
Isma Ruiz Córdoba Actif 124 / 128 40% 2 22.03.2027 -
Tom Fellows Southampton Actif 128 / 126 40% 1 22.03.2027 -
Juan Bezerra Zamalek Actif 128 / 124 40% 1 21.03.2027 -
Othmane Maamma Watford Actif 121 / 120 40% 1 21.03.2027 -
Lander Astiazarán Real Sociedad Actif 115 / 104 40% 2 17.03.2027 -
Veljko Radosavljević Cukaricki Actif 113 / 112 40% 1 14.03.2027 -
Bobby Clark Derby County Actif 110 / 134 40% 1 10.03.2027 -
Camilo Durán Bloemfontein Celtic Actif 102 / 119 40% 3 09.03.2027 -
Julio Enciso Ipswich Town Actif 129 / 141 40% 1 09.03.2027 -
Shea Lacey Millwall Actif 109 / 123 40% 1 09.03.2027 -
Xavier Biscayzacú Sporting CP Actif 126 / 142 40% 1 09.03.2027 -
Mduduzi Shabalala Kaizer Chiefs Actif 108 / 115 40% 3 07.03.2027 -
Andre Brooks Sheffield United Actif 117 / 136 40% 2 07.03.2027 -
Asanele Bonani Chippa United Actif 79 / 105 40% 1 04.03.2027 -
Mathias Jørgensen Blackburn Rovers Actif 119 / 125 40% 2 02.03.2027 -
Alphadjo Cissé Pisa Actif 141 / 117 40% 1 02.03.2027 -
James Dornelly Peterborough United Actif 87 / 117 40% 1 02.03.2027 -
Jack McGlynn Stoke City Actif 137 / 140 40% 2 01.03.2027 -
Nazar Voloshyn Dynamo Kyiv Actif 115 / 138 40% 4 20.02.2027 -
Jordhy Thompson Rubin Actif 123 / 129 40% 3 14.02.2027 -
Tariq Lamptey Queens Park Rangers Actif 117 / 132 40% 1 12.02.2027 -
Michal Kohút Banik Ostrava Actif 148 / 124 40% 1 09.02.2027 -
Filip Kubala Banik Ostrava Actif 104 / 108 40% 1 08.02.2027 -
Louie Barry Sheffield Wednesday Actif 112 / 123 40% 2 05.02.2027 -
Petar Stanić Ludogorets Actif 128 / 145 40% 2 04.02.2027 -
Juan Larios Piast Actif 112 / 107 40% 2 01.02.2027 -
Aljoša Matko Ujpest Actif 140 / 124 40% 2 29.01.2027 -
Othmane Boussaid Aris Thessaloniki Actif 113 / 126 40% 1 27.01.2027 -
Mihailo Ivanović Millwall Actif 116 / 116 40% 1 27.01.2027 -
Wandile Duba Maritzburg United Actif 96 / 115 40% 1 25.01.2027 -
Juan Bisanz Huracán Actif 119 / 121 40% 1 24.01.2027 -
Manuel Mónaco Sarmiento Actif 114 / 120 40% 1 21.01.2027 -
Alexis Cuello San Lorenzo Actif 125 / 125 40% 1 19.01.2027 -
Mariano Bracamonte Deportivo Riestra Actif 118 / 114 40% 1 18.01.2027 -
Alexis Steimbach Gimnasia La Plata Actif 125 / 127 40% 3 14.01.2027 -
Rodrigo González Aldosivi Actif 114 / 111 40% 1 14.01.2027 -
Santiago González Tigre Actif 127 / 137 40% 1 13.01.2027 -
Aarón Molinas Defensa y Justicia Actif 132 / 118 40% 1 13.01.2027 -
Alex Luna Instituto Actif 129 / 122 40% 1 11.01.2027 -
Siro Rosané Estudiantes Actif 121 / 109 40% 1 04.01.2027 -
Martín Jiménez Audax Italiano Actif 94 / 102 51% 1 28.12.2026 -
Luca Martínez Dupuy Godoy Cruz Actif 110 / 116 40% 2 15.12.2026 -
Jonás Acevedo Instituto Actif 115 / 121 40% 1 15.12.2026 -
Diego Rojas Antofagasta Actif 116 / 111 51% 1 01.12.2026 -
Enzo Copetti Rosario Central Actif 129 / 114 40% 1 30.11.2026 -
Mees Rijks Bristol Rovers Actif 106 / 119 40% 1 26.11.2026 -
Emiliano Saliadarre Miramar Misiones Actif 105 / 105 40% 1 25.11.2026 -
Marcelo Torres Gimnasia La Plata Actif 122 / 118 40% 4 24.11.2026 -
Iqraam Rayners Mamelodi Sundowns Actif 139 / 140 40% 2 19.11.2026 -
Sandi Elsnik NK Domzale Actif 121 / 101 40% 1 18.11.2026 -
Elijah Adebayo Luton Town Actif 108 / 131 40% 1 16.11.2026 -
Richard Koné Queens Park Rangers Actif 117 / 123 40% 1 16.11.2026 -
Kelvin Yeboah Minnesota United FC Actif 118 / 125 40% 2 15.11.2026 -
Jhon Murillo America de Cali Actif 124 / 119 40% 1 12.11.2026 -
Alexander Aravena Portland Timbers Actif 130 / 122 40% 5 10.11.2026 Observer
Brayan Gil Baltika Actif 102 / 117 40% 1 10.11.2026 -
Tadeo Allende Inter Miami CF Actif 106 / 121 40% 1 08.11.2026 -
Bénie Traoré New York City Actif 117 / 121 40% 1 05.11.2026 -
Rafael Navarro St. Louis CITY SC Actif 137 / 114 40% 1 03.11.2026 Plus d'infos
Manu Nieto Andorra Actif 117 / 106 40% 2 01.11.2026 -
Luca Langoni New England Revolution Actif 121 / 113 40% 5 29.10.2026 -
Marin Benko Zadar Actif 108 / 115 40% 1 29.10.2026 -
Duncan McGuire Houston Dynamo Actif 141 / 122 40% 1 21.10.2026 -
Sead Hakšabanović Malmo FF Actif 112 / 119 40% 1 21.10.2026 -
Clemente Montes Universidad Catolica Actif 107 / 117 40% 1 19.10.2026 -
Lewis Morgan Toronto FC Actif 113 / 109 40% 1 18.10.2026 -
Michael Vadulli Audax Italiano Actif 110 / 107 40% 1 17.10.2026 -
Denis Bouanga Los Angeles Football Club Actif 123 / 142 40% 2 16.10.2026 -
Morgan Guilavogui Real Salt Lake Actif 118 / 114 40% 1 11.10.2026 -
Roger Brugué Levante Actif 129 / 133 40% 1 05.10.2026 -
Lucas Cornejo Estudiantes Actif 92 / 99 40% 1 05.10.2026 -
Jordan Morris Seattle Sounders Actif 117 / 121 40% 2 30.09.2026 -
Federico Girotti Alianza Lima Actif 114 / 129 40% 1 30.09.2026 -
Alex Valera Universitario Actif 117 / 129 40% 3 26.09.2026 -
Adalberto Peñaranda Deportivo Tachira Actif 114 / 116 40% 1 25.09.2026 -
Tomás Chancalay Minnesota United FC Actif 122 / 111 40% 1 25.09.2026 -
Genaro Rossi San Martín SJ Actif 112 / 118 40% 2 19.09.2026 -
Jonathan Cañete Portuguesa Actif 122 / 114 40% 1 17.09.2026 -
Wessam Abou Ali Columbus Crew Actif 146 / 142 40% 1 17.09.2026 -
Agustín Venezia Iquique Actif 95 / 119 40% 2 12.09.2026 -
Leandro Suhr Piast Actif 103 / 107 40% 1 12.09.2026 -
Guilherme Houston Dynamo Actif 109 / 109 40% 1 07.09.2026 -
Joe Abrigo Palestino Actif 105 / 109 40% 1 06.09.2026 -
Pep Biel Charlotte Football Club Actif 110 / 129 40% 1 05.09.2026 -
Felipe Vizeu Sporting Cristal Actif 113 / 117 40% 1 03.09.2026 -
Richard Torales Guarani Actif 111 / 117 40% 1 03.09.2026 -
Lucas Besozzi Lanús Actif 111 / 125 40% 1 01.09.2026 -
Fabricio Rojas Gimnasia y Tiro Actif 116 / 108 40% 1 30.08.2026 -
Walter González Sportivo Luqueno Actif 126 / 104 40% 1 28.08.2026 -
Eryc Castillo Alianza Lima Actif 106 / 116 40% 2 26.08.2026 -
Jesus Ferreira Seattle Sounders Actif 133 / 132 40% 1 23.08.2026 -
Braian Morales Boca Juniors Actif 91 / 91 40% 1 21.08.2026 -
Facundo Kalinger Huracán Actif 98 / 108 40% 1 21.08.2026 -
Maximiliano Rodríguez Huachipato Actif 118 / 104 40% 1 18.08.2026 -
Ramiro Ruiz Rodríguez Atlético Tucumán Actif 111 / 130 40% 1 13.08.2026 -
Ray Sandoval Cienciano Actif 100 / 108 40% 1 12.08.2026 -
José Rivera Universitario Actif 123 / 106 40% 1 12.08.2026 -
Diego Osio Deportivo La Guaira Actif 111 / 114 40% 1 11.08.2026 -
Nahuel Luján Sport Huancayo Actif 125 / 102 40% 1 09.08.2026 -
Harold Santiago Mosquera Cerro Porteno Actif 112 / 123 40% 1 09.08.2026 -
Rodrigo Morínigo Libertad Actif 120 / 126 40% 1 08.08.2026 -
José Miers 12 de Octubre Actif 100 / 91 40% 1 08.08.2026 -
Nahuel Brunet Godoy Cruz Actif 123 / 111 40% 1 08.08.2026 -
Gaspar Gentile Alianza Lima Actif 118 / 105 40% 1 07.08.2026 -
César Inga Universitario Actif 132 / 135 40% 1 06.08.2026 -
Gerónimo Patritti Gimnasia y Esgrima Actif 92 / 87 40% 1 05.08.2026 -
Gabriel Otero Atletico Venezuela Actif 107 / 108 40% 1 04.08.2026 -
Lucas Varaldo Central Córdoba SdE Actif 126 / 106 40% 1 02.08.2026 -